Time;durP1;ratioP1;P1;durP2;ratioP2;P2;SDS_P1;SDS_P2;PMS_P1;PMS_P2;Temp;Humidity;BMP_temperature;BMP_pressure;BME280_temperature;BME280_humidity;BME280_pressure;Samples;Min_cycle;Max_cycle;Signal;HPM_P1;HPM_P2
2022/11/09 00:01:29;;;;;;;;;;;;;;;;;;4919325;29;19923;-88
2022/11/09 00:03:55;;;;;;;;;;;;;;;;;;4918969;29;19961;-90
2022/11/09 00:06:21;;;;;;;;;;;;;;;;;;4928145;29;19927;-90
2022/11/09 00:08:46;;;;;;;;;;;;;;;;;;4937933;29;19925;-89
2022/11/09 00:11:12;;;;;;;;;;;;;;;;;;4920929;29;20009;-89
2022/11/09 00:13:38;;;;;;;;;;;;;;;;;;4915070;29;19961;-89
2022/11/09 00:16:05;;;;;;;;;;;;;;;;;;4901948;29;19926;-88
2022/11/09 00:18:30;;;;;;;;;;;;;;;;;;4918947;29;19930;-87
2022/11/09 00:20:55;;;;;;;;;;;;;;;;;;4918545;29;20316;-89
2022/11/09 00:23:21;;;;;;;;;;;;;;;;;;4935211;29;19923;-88
2022/11/09 00:25:47;;;;;;;;;;;;;;;;;;4937601;29;19919;-89
2022/11/09 00:28:13;;;;;;;;;;;;;;;;;;4920598;29;20359;-89
2022/11/09 00:30:38;;;;;;;;;;;;;;;;;;4937474;29;19923;-88
2022/11/09 00:33:04;;;;;;;;;;;;;;;;;;4937494;29;20371;-88
2022/11/09 00:35:29;;;;;;;;;;;;;;;;;;4937783;29;20025;-89
2022/11/09 00:37:54;;;;;;;;;;;;;;;;;;4937430;29;19919;-87
2022/11/09 00:40:20;;;;;;;;;;;;;;;;;;4926997;29;20344;-89
2022/11/09 00:42:45;;;;;;;;;;;;;;;;;;4901414;29;19947;-87
2022/11/09 00:45:12;;;;;;;;;;;;;;;;;;4901495;29;19920;-88
2022/11/09 00:47:38;;;;;;;;;;;;;;;;;;4900558;29;19923;-88
2022/11/09 00:50:04;;;;;;;;;;;;;;;;;;4901546;29;19925;-88
2022/11/09 00:52:29;;;;;;;;;;;;;;;;;;4918424;29;19919;-88
2022/11/09 00:54:54;;;;;;;;;;;;;;;;;;4918076;29;20389;-88
2022/11/09 00:57:20;;;;;;;;;;;;;;;;;;4935095;29;19978;-89
2022/11/09 00:59:45;;;;;;;;;;;;;;;;;;4920029;29;19978;-88
2022/11/09 01:02:11;;;;;;;;;;;;;;;;;;4937037;29;19962;-88
2022/11/09 01:04:36;;;;;;;;;;;;;;;;;;4937136;29;20363;-88
2022/11/09 01:07:01;;;;;;;;;;;;;;;;;;4936702;29;19919;-88
2022/11/09 01:09:27;;;;;;;;;;;;;;;;;;4937034;29;19922;-89
2022/11/09 01:11:52;;;;;;;;;;;;;;;;;;4913935;29;20024;-88
2022/11/09 01:14:18;;;;;;;;;;;;;;;;;;4918295;29;20360;-88
2022/11/09 01:16:43;;;;;;;;;;;;;;;;;;4918568;29;19919;-88
2022/11/09 01:19:10;;;;;;;;;;;;;;;;;;4901383;29;19926;-87
2022/11/09 01:21:35;;;;;;;;;;;;;;;;;;4901037;29;19923;-88
2022/11/09 01:24:01;;;;;;;;;;;;;;;;;;4917798;29;20360;-89
2022/11/09 01:26:26;;;;;;;;;;;;;;;;;;4900872;29;20273;-89
2022/11/09 01:28:52;;;;;;;;;;;;;;;;;;4917432;29;20035;-88
2022/11/09 01:31:19;;;;;;;;;;;;;;;;;;4901597;29;19987;-88
2022/11/09 01:33:44;;;;;;;;;;;;;;;;;;4932218;29;19983;-88
2022/11/09 01:36:15;;;;;;;;;;;;;;;;;;4948708;28;19911;-89
2022/11/09 01:38:41;;;;;;;;;;;;;;;;;;4945050;29;19923;-89
2022/11/09 01:41:07;;;;;;;;;;;;;;;;;;4925424;29;19926;-90
2022/11/09 01:43:33;;;;;;;;;;;;;;;;;;4942516;29;19919;-90
2022/11/09 01:46:01;;;;;;;;;;;;;;;;;;4923357;29;20379;-89
2022/11/09 01:48:26;;;;;;;;;;;;;;;;;;4900528;29;20425;-89
2022/11/09 01:51:00;;;;;;;;;;;;;;;;;;4917495;29;19975;-88
2022/11/09 01:53:28;;;;;;;;;;;;;;;;;;4900384;29;19919;-89
2022/11/09 01:55:55;;;;;;;;;;;;;;;;;;4900079;29;19919;-89
2022/11/09 01:58:24;;;;;;;;;;;;;;;;;;4900281;29;19950;-91
2022/11/09 02:00:50;;;;;;;;;;;;;;;;;;4904346;29;20282;-88
2022/11/09 02:03:21;;;;;;;;;;;;;;;;;;4919163;29;19976;-89
2022/11/09 02:05:47;;;;;;;;;;;;;;;;;;4935767;29;19926;-87
2022/11/09 02:08:14;;;;;;;;;;;;;;;;;;4919007;29;19969;-88
2022/11/09 02:10:44;;;;;;;;;;;;;;;;;;4935791;29;19919;-87
2022/11/09 02:13:11;;;;;;;;;;;;;;;;;;4935953;29;19978;-88
2022/11/09 02:15:36;;;;;;;;;;;;;;;;;;4918542;29;20006;-88
2022/11/09 02:18:02;;;;;;;;;;;;;;;;;;4916402;29;20367;-88
2022/11/09 02:20:28;;;;;;;;;;;;;;;;;;4899893;29;20026;-88
2022/11/09 02:22:53;;;;;;;;;;;;;;;;;;4899816;29;20015;-89
2022/11/09 02:25:19;;;;;;;;;;;;;;;;;;4916764;29;20331;-88
2022/11/09 02:27:44;;;;;;;;;;;;;;;;;;4899416;29;19926;-89
2022/11/09 02:30:11;;;;;;;;;;;;;;;;;;4916790;29;19919;-89
2022/11/09 02:32:36;;;;;;;;;;;;;;;;;;4899280;29;19919;-88
2022/11/09 02:35:01;;;;;;;;;;;;;;;;;;4929958;29;19934;-89
2022/11/09 02:37:33;;;;;;;;;;;;;;;;;;4935692;29;19923;-89
2022/11/09 02:40:00;;;;;;;;;;;;;;;;;;4935495;29;19923;-89
2022/11/09 02:42:25;;;;;;;;;;;;;;;;;;4918395;29;19958;-89
2022/11/09 02:44:53;;;;;;;;;;;;;;;;;;4935498;29;19919;-89
2022/11/09 02:47:18;;;;;;;;;;;;;;;;;;4918270;29;20010;-88
2022/11/09 02:49:44;;;;;;;;;;;;;;;;;;4909006;29;20067;-89
2022/11/09 02:52:09;;;;;;;;;;;;;;;;;;4916391;29;19923;-88
2022/11/09 02:54:35;;;;;;;;;;;;;;;;;;4916199;29;19967;-89
2022/11/09 02:57:00;;;;;;;;;;;;;;;;;;4916247;29;19948;-88
2022/11/09 02:59:26;;;;;;;;;;;;;;;;;;4899474;29;19924;-88
2022/11/09 03:01:51;;;;;;;;;;;;;;;;;;4899087;29;19926;-90
2022/11/09 03:04:16;;;;;;;;;;;;;;;;;;4918072;29;19919;-89
2022/11/09 03:06:42;;;;;;;;;;;;;;;;;;4917973;29;19925;-90
2022/11/09 03:09:10;;;;;;;;;;;;;;;;;;4918234;29;19930;-88
2022/11/09 03:11:36;;;;;;;;;;;;;;;;;;4934395;29;19969;-89
2022/11/09 03:14:02;;;;;;;;;;;;;;;;;;4935069;29;20000;-89
2022/11/09 03:16:27;;;;;;;;;;;;;;;;;;4918061;29;20063;-89
2022/11/09 03:18:53;;;;;;;;;;;;;;;;;;4917851;29;19925;-89
2022/11/09 03:21:20;;;;;;;;;;;;;;;;;;4916061;29;19974;-89
2022/11/09 03:23:46;;;;;;;;;;;;;;;;;;4916060;29;19990;-89
2022/11/09 03:26:11;;;;;;;;;;;;;;;;;;4916426;29;20618;-89
2022/11/09 03:28:37;;;;;;;;;;;;;;;;;;4898640;29;19919;-90
2022/11/09 03:31:02;;;;;;;;;;;;;;;;;;4899136;29;19926;-88
2022/11/09 03:33:28;;;;;;;;;;;;;;;;;;4899179;29;20288;-90
2022/11/09 03:35:53;;;;;;;;;;;;;;;;;;4915603;29;20303;-90
2022/11/09 03:38:18;;;;;;;;;;;;;;;;;;4908450;29;19948;-89
2022/11/09 03:40:44;;;;;;;;;;;;;;;;;;4934670;29;19919;-90
2022/11/09 03:43:09;;;;;;;;;;;;;;;;;;4935127;29;19923;-88
2022/11/09 03:45:35;;;;;;;;;;;;;;;;;;4917891;29;20295;-89
2022/11/09 03:48:00;;;;;;;;;;;;;;;;;;4934312;29;19949;-89
2022/11/09 03:50:27;;;;;;;;;;;;;;;;;;4917887;29;19929;-88
2022/11/09 03:52:53;;;;;;;;;;;;;;;;;;4917414;29;19923;-90
2022/11/09 03:55:18;;;;;;;;;;;;;;;;;;4915881;29;19927;-89
2022/11/09 03:57:45;;;;;;;;;;;;;;;;;;4898639;29;19923;-89
2022/11/09 04:00:11;;;;;;;;;;;;;;;;;;4915743;29;19919;-88
2022/11/09 04:02:37;;;;;;;;;;;;;;;;;;4915756;29;20400;-88
2022/11/09 04:05:02;;;;;;;;;;;;;;;;;;4915568;29;19919;-89
2022/11/09 04:07:28;;;;;;;;;;;;;;;;;;4915756;29;20014;-90
2022/11/09 04:09:53;;;;;;;;;;;;;;;;;;4918136;29;19947;-88
2022/11/09 04:12:19;;;;;;;;;;;;;;;;;;4917342;29;19923;-87
2022/11/09 04:14:44;;;;;;;;;;;;;;;;;;4917346;29;19918;-89
2022/11/09 04:17:09;;;;;;;;;;;;;;;;;;4934705;29;19919;-88
2022/11/09 04:19:35;;;;;;;;;;;;;;;;;;4917369;29;19919;-89
2022/11/09 04:22:00;;;;;;;;;;;;;;;;;;4909542;29;20311;-89
2022/11/09 04:24:26;;;;;;;;;;;;;;;;;;4909070;29;20384;-88
2022/11/09 04:26:51;;;;;;;;;;;;;;;;;;4908297;29;20282;-87
2022/11/09 04:29:16;;;;;;;;;;;;;;;;;;4928560;29;21438;-87
2022/11/09 04:31:42;;;;;;;;;;;;;;;;;;4909589;29;20267;-88
2022/11/09 04:34:07;;;;;;;;;;;;;;;;;;4926732;29;19919;-88
2022/11/09 04:36:33;;;;;;;;;;;;;;;;;;4907238;29;19919;-88
2022/11/09 04:38:58;;;;;;;;;;;;;;;;;;4928151;29;20017;-88
2022/11/09 04:43:40;;;;;;;;;;;;;;;;;;5089590;27;19924;-87
2022/11/09 04:46:05;;;;;;;;;;;;;;;;;;5090090;28;19931;-86
2022/11/09 04:48:31;;;;;;;;;;;;;;;;;;5088745;28;19927;-87
2022/11/09 04:51:04;;;;;;;;;;;;;;;;;;5083110;28;19916;-90
2022/11/09 04:53:30;;;;;;;;;;;;;;;;;;5075177;28;19924;-86
2022/11/09 04:55:56;;;;;;;;;;;;;;;;;;5079489;28;19924;-87
2022/11/09 04:58:21;;;;;;;;;;;;;;;;;;5073531;28;19975;-88
2022/11/09 05:00:47;;;;;;;;;;;;;;;;;;5078772;28;19932;-89
2022/11/09 05:03:12;;;;;;;;;;;;;;;;;;5074296;28;19939;-87
2022/11/09 05:05:38;;;;;;;;;;;;;;;;;;5080954;28;19961;-88
2022/11/09 05:08:04;;;;;;;;;;;;;;;;;;5082814;28;19920;-87
2022/11/09 05:10:30;;;;;;;;;;;;;;;;;;5073206;28;19923;-87
2022/11/09 05:13:03;;;;;;;;;;;;;;;;;;5075028;28;20045;-89
2022/11/09 05:15:31;;;;;;;;;;;;;;;;;;5081189;28;19983;-88
2022/11/09 05:17:57;;;;;;;;;;;;;;;;;;5088973;28;19920;-91
2022/11/09 05:20:23;;;;;;;;;;;;;;;;;;5089514;28;19928;-91
2022/11/09 05:25:32;;;;;;;;;;;;;;;;;;5084507;28;19927;-88
2022/11/09 05:27:57;;;;;;;;;;;;;;;;;;5088296;28;19924;-88
2022/11/09 05:30:23;;;;;;;;;;;;;;;;;;5087603;28;19970;-88
2022/11/09 05:32:48;;;;;;;;;;;;;;;;;;5089862;28;19920;-87
2022/11/09 05:35:14;;;;;;;;;;;;;;;;;;5088232;28;19967;-87
2022/11/09 05:37:39;;;;;;;;;;;;;;;;;;5089010;28;20023;-88
2022/11/09 05:40:06;;;;;;;;;;;;;;;;;;5088833;28;19917;-87
2022/11/09 05:42:31;;;;;;;;;;;;;;;;;;5100621;28;19973;-88
2022/11/09 05:44:57;;;;;;;;;;;;;;;;;;5091644;28;19969;-88
2022/11/09 05:47:22;;;;;;;;;;;;;;;;;;5109760;28;19941;-87
2022/11/09 05:49:48;;;;;;;;;;;;;;;;;;5090202;28;19920;-87
2022/11/09 05:52:13;;;;;;;;;;;;;;;;;;5109054;28;19939;-90
2022/11/09 05:54:38;;;;;;;;;;;;;;;;;;5097414;28;19920;-89
2022/11/09 05:57:04;;;;;;;;;;;;;;;;;;5095264;28;20439;-88
2022/11/09 05:59:29;;;;;;;;;;;;;;;;;;5095501;28;19974;-88
2022/11/09 06:01:55;;;;;;;;;;;;;;;;;;5095528;28;19938;-87
2022/11/09 06:04:20;;;;;;;;;;;;;;;;;;5077903;28;19920;-87
2022/11/09 06:06:46;;;;;;;;;;;;;;;;;;5095473;28;19927;-87
2022/11/09 06:09:11;;;;;;;;;;;;;;;;;;5090937;28;19928;-90
2022/11/09 06:11:36;;;;;;;;;;;;;;;;;;5085227;28;19927;-88
2022/11/09 06:14:02;;;;;;;;;;;;;;;;;;5094865;28;19924;-91
2022/11/09 06:16:27;;;;;;;;;;;;;;;;;;5094639;28;19920;-87
2022/11/09 06:18:53;;;;;;;;;;;;;;;;;;5094437;28;20366;-88
2022/11/09 06:21:19;;;;;;;;;;;;;;;;;;5102872;28;19920;-88
2022/11/09 06:23:44;;;;;;;;;;;;;;;;;;5113360;28;19943;-88
2022/11/09 06:26:10;;;;;;;;;;;;;;;;;;5097908;28;19904;-88
2022/11/09 06:28:37;;;;;;;;;;;;;;;;;;5106050;28;19920;-90
2022/11/09 06:31:04;;;;;;;;;;;;;;;;;;5084061;28;19920;-89
2022/11/09 06:33:29;;;;;;;;;;;;;;;;;;5095004;28;20317;-90
2022/11/09 06:35:55;;;;;;;;;;;;;;;;;;5094472;28;19961;-89
2022/11/09 06:38:21;;;;;;;;;;;;;;;;;;5094981;28;20252;-90
2022/11/09 06:40:50;;;;;;;;;;;;;;;;;;5094572;28;19922;-87
2022/11/09 06:43:15;;;;;;;;;;;;;;;;;;5076100;28;19920;-90
2022/11/09 06:45:41;;;;;;;;;;;;;;;;;;5094525;28;19943;-90
2022/11/09 06:48:06;;;;;;;;;;;;;;;;;;5093711;28;20363;-88
2022/11/09 06:50:32;;;;;;;;;;;;;;;;;;5093928;28;19916;-91
2022/11/09 06:52:59;;;;;;;;;;;;;;;;;;5093947;28;19924;-89
2022/11/09 06:55:25;;;;;;;;;;;;;;;;;;5093959;28;19920;-89
2022/11/09 06:57:51;;;;;;;;;;;;;;;;;;5094287;28;19916;-89
2022/11/09 07:00:16;;;;;;;;;;;;;;;;;;5093080;28;20368;-88
2022/11/09 07:02:42;;;;;;;;;;;;;;;;;;5093746;28;20729;-89
2022/11/09 07:05:07;;;;;;;;;;;;;;;;;;5058981;28;20303;-89
2022/11/09 07:07:33;;;;;;;;;;;;;;;;;;5090046;28;19969;-89
2022/11/09 07:09:58;;;;;;;;;;;;;;;;;;5093419;28;19962;-91
2022/11/09 07:12:24;;;;;;;;;;;;;;;;;;5093624;28;20363;-91
2022/11/09 07:14:49;;;;;;;;;;;;;;;;;;5075376;28;19922;-89
2022/11/09 07:17:15;;;;;;;;;;;;;;;;;;5093929;28;20343;-90
2022/11/09 07:19:40;;;;;;;;;;;;;;;;;;5075320;28;19916;-87
2022/11/09 07:22:05;;;;;;;;;;;;;;;;;;5093031;28;19920;-89
2022/11/09 07:24:31;;;;;;;;;;;;;;;;;;5093432;28;19931;-91
2022/11/09 07:26:56;;;;;;;;;;;;;;;;;;5093148;28;19912;-87
2022/11/09 07:29:22;;;;;;;;;;;;;;;;;;5092921;28;20007;-91
2022/11/09 07:31:47;;;;;;;;;;;;;;;;;;5074713;28;19912;-87
2022/11/09 07:34:12;;;;;;;;;;;;;;;;;;5092796;28;19916;-88
2022/11/09 07:36:38;;;;;;;;;;;;;;;;;;5093090;28;20291;-88
2022/11/09 07:39:03;;;;;;;;;;;;;;;;;;5092769;28;20276;-87
2022/11/09 07:41:29;;;;;;;;;;;;;;;;;;5092501;28;19992;-91
2022/11/09 07:43:54;;;;;;;;;;;;;;;;;;5093039;28;19923;-90
2022/11/09 07:46:19;;;;;;;;;;;;;;;;;;5092389;28;19916;-88
2022/11/09 07:48:45;;;;;;;;;;;;;;;;;;5092717;28;19920;-87
2022/11/09 07:51:10;;;;;;;;;;;;;;;;;;5092595;28;19924;-89
2022/11/09 07:53:36;;;;;;;;;;;;;;;;;;5092543;28;19924;-88
2022/11/09 07:56:02;;;;;;;;;;;;;;;;;;5092427;28;19920;-88
2022/11/09 07:58:28;;;;;;;;;;;;;;;;;;5092407;28;19920;-88
2022/11/09 08:00:53;;;;;;;;;;;;;;;;;;5092587;28;20371;-87
2022/11/09 08:03:19;;;;;;;;;;;;;;;;;;5091507;28;20395;-87
2022/11/09 08:05:45;;;;;;;;;;;;;;;;;;5072174;28;20288;-86
2022/11/09 08:08:11;;;;;;;;;;;;;;;;;;5071856;28;19921;-88
2022/11/09 08:10:36;;;;;;;;;;;;;;;;;;5054148;28;19971;-87
2022/11/09 08:13:04;;;;;;;;;;;;;;;;;;5072195;28;19921;-88
2022/11/09 08:15:29;;;;;;;;;;;;;;;;;;5072298;28;19967;-88
2022/11/09 08:18:02;;;;;;;;;;;;;;;;;;5053965;28;19960;-88
2022/11/09 08:20:28;;;;;;;;;;;;;;;;;;5072148;28;19917;-89
2022/11/09 08:22:54;;;;;;;;;;;;;;;;;;5053811;28;19924;-87
2022/11/09 08:25:19;;;;;;;;;;;;;;;;;;5071724;28;19920;-88
2022/11/09 08:27:44;;;;;;;;;;;;;;;;;;5071985;28;19913;-87
2022/11/09 08:30:14;;;;;;;;;;;;;;;;;;5071805;28;19920;-86
2022/11/09 08:32:40;;;;;;;;;;;;;;;;;;5071862;28;20009;-86
2022/11/09 08:35:06;;;;;;;;;;;;;;;;;;5071622;28;19912;-87
2022/11/09 08:37:38;;;;;;;;;;;;;;;;;;5054115;28;19931;-86
2022/11/09 08:40:04;;;;;;;;;;;;;;;;;;5071637;28;20379;-89
2022/11/09 08:42:30;;;;;;;;;;;;;;;;;;5071570;28;20007;-87
2022/11/09 08:44:55;;;;;;;;;;;;;;;;;;5053702;28;20419;-88
2022/11/09 08:47:20;;;;;;;;;;;;;;;;;;5053961;28;20025;-89
2022/11/09 08:49:47;;;;;;;;;;;;;;;;;;5054032;28;20015;-87
2022/11/09 08:52:12;;;;;;;;;;;;;;;;;;5072263;28;20288;-89
2022/11/09 08:54:38;;;;;;;;;;;;;;;;;;5091794;28;19916;-88
2022/11/09 08:57:03;;;;;;;;;;;;;;;;;;5092220;28;19916;-86
2022/11/09 08:59:29;;;;;;;;;;;;;;;;;;5092344;28;19912;-86
2022/11/09 09:01:54;;;;;;;;;;;;;;;;;;5073932;28;19922;-88
2022/11/09 09:04:19;;;;;;;;;;;;;;;;;;5073187;28;19920;-87
2022/11/09 09:06:45;;;;;;;;;;;;;;;;;;5073669;28;20269;-89
2022/11/09 09:09:10;;;;;;;;;;;;;;;;;;5073252;28;19931;-91
2022/11/09 09:11:36;;;;;;;;;;;;;;;;;;5092149;28;19923;-89
2022/11/09 09:14:01;;;;;;;;;;;;;;;;;;5091882;28;19927;-89
2022/11/09 09:16:27;;;;;;;;;;;;;;;;;;5073436;28;20011;-87
2022/11/09 09:18:52;;;;;;;;;;;;;;;;;;5091585;28;20085;-89
2022/11/09 09:21:17;;;;;;;;;;;;;;;;;;5091401;28;19916;-89
2022/11/09 09:23:43;;;;;;;;;;;;;;;;;;5073647;28;19920;-89
2022/11/09 09:26:08;;;;;;;;;;;;;;;;;;5091381;28;20306;-90
2022/11/09 09:28:34;;;;;;;;;;;;;;;;;;5092080;28;19926;-88
2022/11/09 09:31:01;;;;;;;;;;;;;;;;;;5094524;28;19927;-88
2022/11/09 09:33:26;;;;;;;;;;;;;;;;;;5095215;28;19916;-88
2022/11/09 09:35:55;;;;;;;;;;;;;;;;;;5077243;28;20410;-89
2022/11/09 09:38:20;;;;;;;;;;;;;;;;;;5095092;28;19920;-87
2022/11/09 09:40:48;;;;;;;;;;;;;;;;;;5095761;28;19930;-89
2022/11/09 09:43:16;;;;;;;;;;;;;;;;;;5094676;28;19926;-88
2022/11/09 09:45:47;;;;;;;;;;;;;;;;;;5095198;28;19924;-90
2022/11/09 09:48:20;;;;;;;;;;;;;;;;;;5095092;28;19922;-88
2022/11/09 09:50:52;;;;;;;;;;;;;;;;;;5056989;28;19970;-88
2022/11/09 09:53:25;;;;;;;;;;;;;;;;;;5074868;28;19916;-89
2022/11/09 09:56:06;;;;;;;;;;;;;;;;;;5056883;28;19916;-90
2022/11/09 09:58:33;;;;;;;;;;;;;;;;;;5074553;28;19920;-88
2022/11/09 10:01:04;;;;;;;;;;;;;;;;;;5074592;28;19931;-87
2022/11/09 10:03:30;;;;;;;;;;;;;;;;;;5058404;28;19923;-88
2022/11/09 10:06:14;;;;;;;;;;;;;;;;;;5095419;28;19917;-87
2022/11/09 10:08:39;;;;;;;;;;;;;;;;;;5094728;28;20378;-88
2022/11/09 10:11:05;;;;;;;;;;;;;;;;;;5094543;28;19966;-88
2022/11/09 10:13:40;;;;;;;;;;;;;;;;;;5094823;28;20010;-89
2022/11/09 10:16:17;;;;;;;;;;;;;;;;;;5095329;28;20367;-88
2022/11/09 10:19:08;;;;;;;;;;;;;;;;;;5077689;28;19916;-88
2022/11/09 10:21:36;;;;;;;;;;;;;;;;;;5077176;28;19916;-87
2022/11/09 10:24:02;;;;;;;;;;;;;;;;;;5095317;28;19920;-91
2022/11/09 10:26:37;;;;;;;;;;;;;;;;;;5076569;28;20023;-86
2022/11/09 10:29:14;;;;;;;;;;;;;;;;;;5094688;28;19916;-89
2022/11/09 10:31:40;;;;;;;;;;;;;;;;;;5079403;28;19919;-87
2022/11/09 10:34:25;;;;;;;;;;;;;;;;;;5114232;28;19919;-87
2022/11/09 10:36:55;;;;;;;;;;;;;;;;;;5105243;28;19915;-88
2022/11/09 10:39:23;;;;;;;;;;;;;;;;;;5103776;28;20387;-87
2022/11/09 10:41:49;;;;;;;;;;;;;;;;;;5081687;28;19950;-89
2022/11/09 10:44:16;;;;;;;;;;;;;;;;;;5094399;28;20399;-89
2022/11/09 10:47:21;;;;;;;;;;;;;;;;;;5076252;28;19969;-87
2022/11/09 10:50:04;;;;;;;;;;;;;;;;;;5032729;28;20021;-88
2022/11/09 10:52:31;;;;;;;;;;;;;;;;;;5034882;28;19967;-87
2022/11/09 10:55:20;;;;;;;;;;;;;;;;;;5049088;28;19920;-88
2022/11/09 10:58:09;;;;;;;;;;;;;;;;;;5047196;28;19921;-89
2022/11/09 11:00:35;;;;;;;;;;;;;;;;;;5041251;28;20012;-90
2022/11/09 11:03:18;;;;;;;;;;;;;;;;;;5022289;28;19972;-91
2022/11/09 11:05:55;;;;;;;;;;;;;;;;;;5039395;28;19924;-89
2022/11/09 11:08:26;;;;;;;;;;;;;;;;;;5037804;28;19956;-88
2022/11/09 11:11:04;;;;;;;;;;;;;;;;;;5046103;28;20095;-90
2022/11/09 11:13:30;;;;;;;;;;;;;;;;;;5051075;28;20364;-88
2022/11/09 11:15:55;;;;;;;;;;;;;;;;;;5051329;28;20007;-89
2022/11/09 11:18:25;;;;;;;;;;;;;;;;;;5050985;28;19925;-88
2022/11/09 11:21:11;;;;;;;;;;;;;;;;;;5066054;28;19955;-91
2022/11/09 11:23:37;;;;;;;;;;;;;;;;;;5074379;28;19920;-86
2022/11/09 11:26:23;;;;;;;;;;;;;;;;;;5072831;28;19926;-87
2022/11/09 11:28:50;;;;;;;;;;;;;;;;;;5088765;28;19916;-86
2022/11/09 11:31:17;;;;;;;;;;;;;;;;;;5073129;28;19921;-88
2022/11/09 11:33:42;;;;;;;;;;;;;;;;;;5073027;28;20007;-87
2022/11/09 11:36:11;;;;;;;;;;;;;;;;;;5073232;28;19956;-86
2022/11/09 11:38:49;;;;;;;;;;;;;;;;;;5072936;28;20012;-85
2022/11/09 11:41:34;;;;;;;;;;;;;;;;;;5059842;28;19969;-85
2022/11/09 11:44:12;;;;;;;;;;;;;;;;;;5082684;28;19921;-88
2022/11/09 11:46:37;;;;;;;;;;;;;;;;;;5079412;28;19923;-87
2022/11/09 11:49:03;;;;;;;;;;;;;;;;;;5072257;28;20027;-87
2022/11/09 11:51:35;;;;;;;;;;;;;;;;;;5091444;28;19994;-89
2022/11/09 11:54:15;;;;;;;;;;;;;;;;;;5092196;28;20430;-88
2022/11/09 11:56:46;;;;;;;;;;;;;;;;;;5092141;28;20011;-85
2022/11/09 11:59:11;;;;;;;;;;;;;;;;;;5074231;28;19920;-89
2022/11/09 12:01:50;;;;;;;;;;;;;;;;;;5089249;28;19939;-88
2022/11/09 12:04:42;;;;;;;;;;;;;;;;;;5073455;28;19959;-86
2022/11/09 12:07:13;;;;;;;;;;;;;;;;;;5049434;28;19927;-87
2022/11/09 12:09:38;;;;;;;;;;;;;;;;;;5072282;28;20368;-87
2022/11/09 12:12:07;;;;;;;;;;;;;;;;;;5073626;28;20011;-87
2022/11/09 12:14:48;;;;;;;;;;;;;;;;;;5075802;28;20372;-89
2022/11/09 12:17:19;;;;;;;;;;;;;;;;;;5054972;28;19922;-87
2022/11/09 12:20:05;;;;;;;;;;;;;;;;;;5072567;28;19923;-88
2022/11/09 12:22:52;;;;;;;;;;;;;;;;;;5072304;28;19917;-89
2022/11/09 12:25:17;;;;;;;;;;;;;;;;;;5082114;28;20014;-88
2022/11/09 12:28:01;;;;;;;;;;;;;;;;;;5093667;28;20007;-89
2022/11/09 12:33:48;;;;;;;;;;;;;;;;;;5109235;22;20486;-92
2022/11/09 12:36:20;;;;;;;;;;;;;;;;;;5050832;28;20368;-93
2022/11/09 12:38:56;;;;;;;;;;;;;;;;;;5072881;22;19925;-88
2022/11/09 12:41:24;;;;;;;;;;;;;;;;;;5027586;28;19968;-91
2022/11/09 12:43:56;;;;;;;;;;;;;;;;;;5012438;28;19932;-90
2022/11/09 12:46:25;;;;;;;;;;;;;;;;;;5009818;28;20336;-91
2022/11/09 12:48:51;;;;;;;;;;;;;;;;;;5011827;28;20301;-91
2022/11/09 12:51:17;;;;;;;;;;;;;;;;;;5016500;28;19967;-90
2022/11/09 12:53:42;;;;;;;;;;;;;;;;;;5010720;28;19974;-91
2022/11/09 12:56:19;;;;;;;;;;;;;;;;;;5029229;28;19921;-93
2022/11/09 12:58:44;;;;;;;;;;;;;;;;;;5025964;28;20350;-91
2022/11/09 13:01:11;;;;;;;;;;;;;;;;;;5009761;28;19955;-91
2022/11/09 13:03:50;;;;;;;;;;;;;;;;;;4993302;28;19921;-88
2022/11/09 13:06:25;;;;;;;;;;;;;;;;;;5030326;28;19979;-92
2022/11/09 13:09:02;;;;;;;;;;;;;;;;;;5032711;28;19924;-93
2022/11/09 13:11:38;;;;;;;;;;;;;;;;;;5033673;28;19968;-91
2022/11/09 13:14:24;;;;;;;;;;;;;;;;;;5026618;28;20253;-90
2022/11/09 13:16:54;;;;;;;;;;;;;;;;;;5014927;28;20393;-90
2022/11/09 13:19:38;;;;;;;;;;;;;;;;;;5015728;28;19995;-88
2022/11/09 13:22:13;;;;;;;;;;;;;;;;;;5026970;28;19952;-89
2022/11/09 13:24:51;;;;;;;;;;;;;;;;;;5024959;28;19925;-92
2022/11/09 13:27:37;;;;;;;;;;;;;;;;;;5034031;28;19927;-89
2022/11/09 13:30:23;;;;;;;;;;;;;;;;;;5034966;28;19921;-89
2022/11/09 13:33:09;;;;;;;;;;;;;;;;;;5033749;28;19921;-90
2022/11/09 13:35:44;;;;;;;;;;;;;;;;;;5034708;28;19928;-90
2022/11/09 13:38:16;;;;;;;;;;;;;;;;;;5035065;28;19956;-92
2022/11/09 13:40:43;;;;;;;;;;;;;;;;;;5024136;28;20254;-91
2022/11/09 13:43:09;;;;;;;;;;;;;;;;;;5031716;28;19963;-92
2022/11/09 13:45:36;;;;;;;;;;;;;;;;;;5030417;28;19956;-91
2022/11/09 13:48:02;;;;;;;;;;;;;;;;;;5032374;28;19921;-91
2022/11/09 13:50:29;;;;;;;;;;;;;;;;;;5032346;28;20388;-90
2022/11/09 13:52:57;;;;;;;;;;;;;;;;;;5014423;28;19928;-89
2022/11/09 13:55:39;;;;;;;;;;;;;;;;;;5032246;28;19921;-88
2022/11/09 13:58:20;;;;;;;;;;;;;;;;;;5013860;28;19917;-90
2022/11/09 14:00:46;;;;;;;;;;;;;;;;;;5037594;28;19951;-87
2022/11/09 14:03:19;;;;;;;;;;;;;;;;;;5023894;28;19931;-93
2022/11/09 14:05:47;;;;;;;;;;;;;;;;;;5014185;28;19989;-93
2022/11/09 14:08:21;;;;;;;;;;;;;;;;;;5018382;28;19917;-88
2022/11/09 14:11:05;;;;;;;;;;;;;;;;;;5030218;28;19993;-90
2022/11/09 14:13:51;;;;;;;;;;;;;;;;;;5033363;28;19921;-89
2022/11/09 14:16:24;;;;;;;;;;;;;;;;;;4993369;28;19917;-92
2022/11/09 14:19:11;;;;;;;;;;;;;;;;;;5023569;28;19944;-90
2022/11/09 14:21:43;;;;;;;;;;;;;;;;;;5014546;28;19990;-90
2022/11/09 14:24:14;;;;;;;;;;;;;;;;;;5035392;28;20345;-89
2022/11/09 14:26:57;;;;;;;;;;;;;;;;;;5018089;28;19971;-91
2022/11/09 14:29:23;;;;;;;;;;;;;;;;;;5038857;28;19924;-92
2022/11/09 14:31:49;;;;;;;;;;;;;;;;;;5035981;28;19945;-91
2022/11/09 14:34:15;;;;;;;;;;;;;;;;;;5017944;28;19960;-90
2022/11/09 14:36:41;;;;;;;;;;;;;;;;;;5028682;28;19925;-89
2022/11/09 14:39:20;;;;;;;;;;;;;;;;;;5029184;28;19925;-89
2022/11/09 14:41:46;;;;;;;;;;;;;;;;;;5045627;28;20011;-90
2022/11/09 14:44:18;;;;;;;;;;;;;;;;;;5048893;28;20341;-90
2022/11/09 14:46:43;;;;;;;;;;;;;;;;;;5038476;28;19922;-91
2022/11/09 14:49:09;;;;;;;;;;;;;;;;;;5033905;28;19917;-90
2022/11/09 14:51:38;;;;;;;;;;;;;;;;;;5047470;28;19921;-88
2022/11/09 14:54:11;;;;;;;;;;;;;;;;;;5018169;28;20008;-90
2022/11/09 14:56:37;;;;;;;;;;;;;;;;;;5014905;28;20016;-89
2022/11/09 14:59:11;;;;;;;;;;;;;;;;;;5023753;28;20265;-92
2022/11/09 15:01:37;;;;;;;;;;;;;;;;;;5008862;28;20087;-91
2022/11/09 15:04:07;;;;;;;;;;;;;;;;;;5029251;28;20351;-89
2022/11/09 15:06:33;;;;;;;;;;;;;;;;;;5008658;28;19927;-92
2022/11/09 15:09:00;;;;;;;;;;;;;;;;;;5001478;28;19925;-92
2022/11/09 15:11:37;;;;;;;;;;;;;;;;;;5035729;28;19921;-90
2022/11/09 15:14:13;;;;;;;;;;;;;;;;;;5018213;28;19921;-89
2022/11/09 15:16:38;;;;;;;;;;;;;;;;;;5026005;28;20428;-89
2022/11/09 15:19:04;;;;;;;;;;;;;;;;;;5032369;28;19944;-88
2022/11/09 15:21:29;;;;;;;;;;;;;;;;;;5043427;28;19946;-90
2022/11/09 15:24:13;;;;;;;;;;;;;;;;;;5035963;28;19933;-90
2022/11/09 15:26:43;;;;;;;;;;;;;;;;;;5007213;28;20368;-89
2022/11/09 15:29:27;;;;;;;;;;;;;;;;;;5023665;28;19998;-91
2022/11/09 15:32:00;;;;;;;;;;;;;;;;;;5020815;28;19921;-90
2022/11/09 15:34:27;;;;;;;;;;;;;;;;;;5016955;28;19918;-91
2022/11/09 15:36:54;;;;;;;;;;;;;;;;;;5018889;28;19921;-89
2022/11/09 15:39:20;;;;;;;;;;;;;;;;;;5028057;28;19939;-89
2022/11/09 15:41:46;;;;;;;;;;;;;;;;;;5004778;28;19932;-90
2022/11/09 15:44:12;;;;;;;;;;;;;;;;;;5017046;28;19922;-87
2022/11/09 15:46:44;;;;;;;;;;;;;;;;;;5023229;28;19921;-89
2022/11/09 15:49:15;;;;;;;;;;;;;;;;;;5036442;28;19928;-89
2022/11/09 15:51:40;;;;;;;;;;;;;;;;;;5030686;28;19932;-88
2022/11/09 15:54:05;;;;;;;;;;;;;;;;;;5031188;28;19921;-88
2022/11/09 15:56:31;;;;;;;;;;;;;;;;;;5012972;28;19921;-91
2022/11/09 15:58:56;;;;;;;;;;;;;;;;;;5027614;28;19921;-90
2022/11/09 16:01:22;;;;;;;;;;;;;;;;;;5015959;28;19936;-92
2022/11/09 16:03:47;;;;;;;;;;;;;;;;;;5025560;28;19927;-92
2022/11/09 16:06:21;;;;;;;;;;;;;;;;;;5030457;28;20423;-91
2022/11/09 16:08:47;;;;;;;;;;;;;;;;;;5026528;28;19946;-91
2022/11/09 16:11:12;;;;;;;;;;;;;;;;;;5020443;28;19917;-92
2022/11/09 16:13:38;;;;;;;;;;;;;;;;;;5028269;28;20034;-93
2022/11/09 16:16:05;;;;;;;;;;;;;;;;;;5029121;28;19928;-94
2022/11/09 16:18:31;;;;;;;;;;;;;;;;;;5031353;28;20012;-89
2022/11/09 16:20:57;;;;;;;;;;;;;;;;;;5034368;28;20752;-92
2022/11/09 16:23:23;;;;;;;;;;;;;;;;;;5027269;28;19917;-92
2022/11/09 16:25:48;;;;;;;;;;;;;;;;;;5021121;28;20282;-90
2022/11/09 16:28:13;;;;;;;;;;;;;;;;;;5017713;28;19921;-92
2022/11/09 16:30:39;;;;;;;;;;;;;;;;;;5030922;28;20348;-91
2022/11/09 16:33:05;;;;;;;;;;;;;;;;;;5032476;28;19923;-92
2022/11/09 16:35:32;;;;;;;;;;;;;;;;;;5036800;28;19956;-93
2022/11/09 16:38:00;;;;;;;;;;;;;;;;;;5019304;28;19921;-90
2022/11/09 16:40:27;;;;;;;;;;;;;;;;;;5015446;28;19925;-92
2022/11/09 16:42:53;;;;;;;;;;;;;;;;;;5031518;28;19921;-92
2022/11/09 16:45:19;;;;;;;;;;;;;;;;;;5022767;28;19932;-90
2022/11/09 16:47:46;;;;;;;;;;;;;;;;;;5036356;28;19928;-90
2022/11/09 16:50:12;;;;;;;;;;;;;;;;;;5030345;28;19917;-90
2022/11/09 16:52:37;;;;;;;;;;;;;;;;;;5028166;28;19917;-90
2022/11/09 16:55:03;;;;;;;;;;;;;;;;;;5027993;28;19928;-90
2022/11/09 16:57:28;;;;;;;;;;;;;;;;;;5029532;28;19925;-91
2022/11/09 16:59:54;;;;;;;;;;;;;;;;;;5027723;28;20372;-91
2022/11/09 17:02:19;;;;;;;;;;;;;;;;;;5029159;28;20430;-90